Time;durP1;ratioP1;P1;durP2;ratioP2;P2;SDS_P1;SDS_P2;PMS_P1;PMS_P2;Temp;Humidity;BMP_temperature;BMP_pressure;BME280_temperature;BME280_humidity;BME280_pressure;Samples;Min_cycle;Max_cycle;Signal;HPM_P1;HPM_P2
2020/12/29 00:02:24;;;;;;;4.85;1.90;;;;;;;2.25;70.25;92625.28;4771628;30;20102;-40
2020/12/29 00:04:51;;;;;;;3.30;1.98;;;;;;;2.41;69.40;92617.09;4771839;30;20071;-41
2020/12/29 00:07:17;;;;;;;3.35;1.60;;;;;;;2.39;69.06;92608.69;4770747;30;20242;-40
2020/12/29 00:09:43;;;;;;;3.42;1.95;;;;;;;2.39;68.78;92613.25;4771067;30;20056;-42
2020/12/29 00:12:10;;;;;;;4.45;2.10;;;;;;;2.36;68.98;92614.75;4770363;30;20481;-40
2020/12/29 00:14:36;;;;;;;2.95;1.65;;;;;;;2.28;69.41;92618.47;4770296;30;20065;-40
2020/12/29 00:17:03;;;;;;;3.53;1.80;;;;;;;2.23;69.01;92616.09;4770134;30;20082;-41
2020/12/29 00:19:29;;;;;;;6.53;1.88;;;;;;;2.36;68.49;92621.97;4769576;30;20069;-40
2020/12/29 00:21:56;;;;;;;3.40;1.73;;;;;;;2.30;68.41;92626.84;4770926;29;20617;-43
2020/12/29 00:24:22;;;;;;;2.88;1.65;;;;;;;2.66;67.53;92628.09;4769827;30;20477;-43
2020/12/29 00:27:03;;;;;;;3.65;1.50;;;;;;;2.58;67.62;92616.56;4771173;29;20063;-42
2020/12/29 00:29:31;;;;;;;3.85;1.67;;;;;;;2.62;67.77;92631.84;4770158;30;20059;-43
2020/12/29 00:32:02;;;;;;;3.95;1.50;;;;;;;2.62;66.98;92642.53;4771772;30;20489;-40
2020/12/29 00:34:28;;;;;;;4.53;1.77;;;;;;;2.57;66.38;92635.63;4774100;30;20098;-41
2020/12/29 00:36:55;;;;;;;3.55;1.15;;;;;;;2.49;66.80;92642.75;4773715;29;20054;-40
2020/12/29 00:39:21;;;;;;;2.70;1.48;;;;;;;2.50;66.87;92638.97;4772147;30;20064;-40
2020/12/29 00:41:48;;;;;;;3.30;1.48;;;;;;;2.66;66.18;92646.00;4772316;30;20116;-42
2020/12/29 00:44:14;;;;;;;3.30;1.60;;;;;;;2.64;66.11;92653.63;4772595;29;20514;-41
2020/12/29 00:46:40;;;;;;;3.00;1.73;;;;;;;2.55;66.17;92654.66;4770050;30;20179;-42
2020/12/29 00:49:07;;;;;;;2.95;1.50;;;;;;;2.52;66.44;92650.03;4767959;30;20060;-43
2020/12/29 00:51:33;;;;;;;2.97;1.48;;;;;;;2.43;66.83;92667.44;4770267;30;20086;-41
2020/12/29 00:54:02;;;;;;;2.28;1.23;;;;;;;2.34;67.17;92670.38;4769163;30;20052;-41
2020/12/29 00:56:35;;;;;;;;;;;;;;;2.52;67.13;92673.28;4769850;30;20491;-42
2020/12/29 00:59:03;;;;;;;3.67;1.55;;;;;;;2.52;66.22;92682.03;4767849;30;19926;-41
2020/12/29 01:01:32;;;;;;;4.55;1.65;;;;;;;2.23;66.21;92675.53;4768355;30;20055;-42
2020/12/29 01:04:28;;;;;;;4.18;1.40;;;;;;;2.37;66.21;92674.19;4771723;30;20055;-41
2020/12/29 01:06:56;;;;;;;2.92;1.30;;;;;;;2.34;65.88;92665.81;4768083;30;20059;-41
2020/12/29 01:09:23;;;;;;;2.40;1.08;;;;;;;2.31;65.75;92665.75;4767405;30;20147;-42
2020/12/29 01:11:53;;;;;;;2.67;1.10;;;;;;;2.34;65.38;92668.47;4767983;30;20048;-43
2020/12/29 01:14:19;;;;;;;2.58;1.63;;;;;;;2.39;65.11;92670.06;4769455;30;20059;-42
2020/12/29 01:16:56;;;;;;;1.77;1.10;;;;;;;2.45;65.31;92670.53;4769353;30;20125;-41
2020/12/29 01:19:22;;;;;;;2.25;1.13;;;;;;;2.50;64.79;92662.97;4767348;30;20066;-41
2020/12/29 01:21:52;;;;;;;3.78;1.33;;;;;;;2.54;64.99;92673.69;4768933;30;20067;-41
2020/12/29 01:24:18;;;;;;;2.05;0.93;;;;;;;2.52;64.32;92655.38;4768975;30;20147;-42
2020/12/29 01:26:45;;;;;;;3.08;1.10;;;;;;;2.59;64.56;92636.00;4767687;30;20086;-42
2020/12/29 01:29:11;;;;;;;2.03;1.00;;;;;;;2.87;63.71;92664.97;4767187;30;20086;-41
2020/12/29 01:31:38;;;;;;;1.90;1.00;;;;;;;2.90;64.07;92663.47;4768901;30;20550;-40
2020/12/29 01:34:04;;;;;;;2.15;1.15;;;;;;;2.88;64.01;92660.38;4769414;29;20051;-42
2020/12/29 01:36:30;;;;;;;1.90;0.93;;;;;;;3.00;63.77;92668.94;4769119;29;20059;-40
2020/12/29 01:38:57;;;;;;;1.92;1.00;;;;;;;2.95;63.90;92671.16;4768109;30;20515;-43
2020/12/29 01:41:23;;;;;;;1.83;1.05;;;;;;;2.99;63.78;92664.72;4769700;30;20060;-40
2020/12/29 01:43:50;;;;;;;1.58;0.90;;;;;;;2.89;64.32;92684.03;4769376;30;20064;-42
2020/12/29 01:46:17;;;;;;;1.95;1.08;;;;;;;2.81;65.71;92680.53;4768271;30;20056;-41
2020/12/29 01:48:44;;;;;;;2.88;1.00;;;;;;;2.17;66.99;92690.31;4768556;30;20062;-43
2020/12/29 01:51:12;;;;;;;2.28;0.93;;;;;;;1.73;68.29;92682.78;4769261;30;20059;-40
2020/12/29 01:53:41;;;;;;;1.70;1.00;;;;;;;1.84;68.83;92689.03;4769278;30;20063;-42
2020/12/29 01:56:10;;;;;;;1.58;0.80;;;;;;;2.17;67.75;92681.53;4769582;30;20083;-42
2020/12/29 01:58:43;;;;;;;2.20;0.98;;;;;;;2.37;67.06;92674.19;4767570;30;20060;-42
2020/12/29 02:01:11;;;;;;;2.22;0.90;;;;;;;2.43;67.31;92680.78;4770617;30;20051;-43
2020/12/29 02:03:38;;;;;;;3.03;1.23;;;;;;;2.31;67.88;92676.44;4770800;30;20064;-42
2020/12/29 02:06:04;;;;;;;1.63;1.00;;;;;;;2.23;67.37;92693.44;4769430;30;20438;-42
2020/12/29 02:08:31;;;;;;;2.10;0.95;;;;;;;2.30;67.82;92699.66;4769875;30;20142;-42
2020/12/29 02:11:00;;;;;;;2.67;1.17;;;;;;;2.35;67.10;92695.91;4769460;30;20068;-43
2020/12/29 02:13:26;;;;;;;1.30;0.85;;;;;;;2.46;67.69;92714.75;4771841;30;20081;-41
2020/12/29 02:15:52;;;;;;;1.70;1.08;;;;;;;2.52;67.76;92721.31;4770862;29;20521;-41
2020/12/29 02:18:19;;;;;;;1.90;1.17;;;;;;;2.57;67.41;92715.69;4768118;30;20079;-44
2020/12/29 02:20:45;;;;;;;2.65;1.23;;;;;;;2.56;66.71;92730.13;4768933;30;20060;-42
2020/12/29 02:23:11;;;;;;;1.77;1.00;;;;;;;2.33;67.24;92728.28;4768959;30;20063;-42
2020/12/29 02:25:38;;;;;;;1.63;1.10;;;;;;;2.44;67.47;92739.13;4769069;30;20138;-40
2020/12/29 02:28:05;;;;;;;1.23;0.77;;;;;;;2.40;67.42;92756.19;4767958;30;20048;-43
2020/12/29 02:30:32;;;;;;;1.08;0.80;;;;;;;2.12;67.97;92738.63;4769172;30;20052;-41
2020/12/29 02:32:59;;;;;;;1.27;0.77;;;;;;;2.12;67.77;92733.28;4769143;30;20503;-40
2020/12/29 02:35:25;;;;;;;1.35;0.85;;;;;;;1.99;68.52;92729.28;4770467;30;20119;-41
2020/12/29 02:37:52;;;;;;;1.40;0.80;;;;;;;2.13;68.34;92724.16;4769931;30;20056;-40
2020/12/29 02:40:18;;;;;;;1.48;0.98;;;;;;;2.25;67.70;92737.31;4769657;30;20535;-41
2020/12/29 02:42:44;;;;;;;1.50;0.88;;;;;;;2.31;67.61;92756.47;4769106;30;20056;-40
2020/12/29 02:45:11;;;;;;;1.73;0.82;;;;;;;2.09;68.44;92766.78;4770109;30;20134;-40
2020/12/29 02:47:38;;;;;;;1.55;0.90;;;;;;;1.95;69.36;92771.88;4768851;30;20083;-40
2020/12/29 02:50:06;;;;;;;2.10;1.10;;;;;;;2.16;69.07;92781.34;4769504;30;20063;-40
2020/12/29 02:52:33;;;;;;;1.45;0.90;;;;;;;2.29;68.44;92788.03;4768775;30;20426;-40
2020/12/29 02:55:00;;;;;;;3.47;0.82;;;;;;;2.28;68.71;92789.19;4768540;30;20484;-41
2020/12/29 02:57:27;;;;;;;1.63;0.93;;;;;;;2.22;68.83;92769.25;4767742;30;20496;-42
2020/12/29 02:59:54;;;;;;;4.30;1.33;;;;;;;2.37;68.89;92784.34;4771626;30;20067;-41
2020/12/29 03:02:20;;;;;;;1.60;0.90;;;;;;;2.55;68.17;92782.75;4772321;30;20142;-39
2020/12/29 03:04:46;;;;;;;1.63;0.82;;;;;;;2.55;68.15;92790.75;4772588;30;20134;-41
2020/12/29 03:07:13;;;;;;;1.13;0.70;;;;;;;2.70;67.67;92794.41;4773092;30;20483;-39
2020/12/29 03:09:40;;;;;;;1.73;0.88;;;;;;;2.73;67.74;92801.72;4771586;30;20575;-41
2020/12/29 03:12:07;;;;;;;1.98;1.00;;;;;;;2.81;67.50;92803.34;4771469;30;20056;-40
2020/12/29 03:14:34;;;;;;;1.40;0.90;;;;;;;2.68;67.54;92785.22;4773493;30;20055;-41
2020/12/29 03:17:01;;;;;;;1.83;0.90;;;;;;;2.71;67.55;92792.50;4773527;30;20159;-40
2020/12/29 03:19:27;;;;;;;2.90;0.90;;;;;;;2.77;67.43;92791.06;4770736;30;20134;-39
2020/12/29 03:21:54;;;;;;;2.00;0.80;;;;;;;2.70;67.59;92781.06;4770851;30;20063;-39
2020/12/29 03:24:20;;;;;;;1.83;0.80;;;;;;;2.81;67.37;92791.88;4770799;30;20067;-39
2020/12/29 03:26:46;;;;;;;1.13;0.93;;;;;;;2.76;67.35;92778.84;4770687;30;20436;-39
2020/12/29 03:29:13;;;;;;;1.40;0.85;;;;;;;2.78;67.47;92785.38;4788054;24;20052;-41
2020/12/29 03:31:43;;;;;;;1.65;0.85;;;;;;;2.87;66.95;92789.69;4771107;30;20093;-43
2020/12/29 03:34:16;;;;;;;1.05;0.77;;;;;;;2.88;66.45;92791.97;4771395;30;20161;-40
2020/12/29 03:36:43;;;;;;;1.50;0.70;;;;;;;2.85;67.12;92784.69;4771337;30;20475;-45
2020/12/29 03:39:10;;;;;;;2.13;1.27;;;;;;;2.95;66.66;92813.44;4770196;29;20060;-42
2020/12/29 03:41:36;;;;;;;1.42;0.82;;;;;;;2.95;66.42;92794.75;4769767;30;20134;-45
2020/12/29 03:44:03;;;;;;;1.00;0.77;;;;;;;2.96;66.53;92803.56;4771118;30;20143;-42
2020/12/29 03:46:29;;;;;;;2.95;1.02;;;;;;;2.98;66.10;92802.03;4771113;30;20058;-43
2020/12/29 03:48:55;;;;;;;1.88;0.75;;;;;;;2.97;66.33;92802.41;4770041;30;20063;-42
2020/12/29 03:51:22;;;;;;;1.30;0.70;;;;;;;3.13;66.00;92808.38;4770486;30;20067;-45
2020/12/29 03:53:48;;;;;;;1.45;1.00;;;;;;;2.76;67.31;92808.22;4770819;30;20056;-40
2020/12/29 03:56:14;;;;;;;1.08;0.65;;;;;;;2.40;68.00;92794.31;4770601;30;20055;-40
2020/12/29 03:58:42;;;;;;;1.17;0.73;;;;;;;2.51;67.91;92813.19;4770137;30;20116;-39
2020/12/29 04:01:08;;;;;;;1.30;0.80;;;;;;;2.68;67.45;92827.94;4770351;29;20066;-39
2020/12/29 04:03:35;;;;;;;1.52;0.82;;;;;;;2.69;67.55;92837.47;4770340;30;20071;-40
2020/12/29 04:06:01;;;;;;;2.35;0.85;;;;;;;2.68;67.67;92833.25;4770145;30;20062;-41
2020/12/29 04:08:27;;;;;;;1.73;0.80;;;;;;;2.81;67.35;92845.28;4769429;29;20052;-40
2020/12/29 04:10:54;;;;;;;1.95;0.93;;;;;;;2.74;66.77;92834.50;4769463;30;20059;-40
2020/12/29 04:13:20;;;;;;;1.65;0.85;;;;;;;2.82;66.43;92822.78;4770178;29;20059;-40
2020/12/29 04:15:46;;;;;;;1.13;0.80;;;;;;;2.96;66.49;92830.25;4770107;30;20059;-40
2020/12/29 04:18:13;;;;;;;1.25;0.90;;;;;;;2.93;66.69;92834.41;4769426;29;20059;-40
2020/12/29 04:20:39;;;;;;;1.48;0.77;;;;;;;2.96;66.75;92831.03;4770207;30;20063;-39
2020/12/29 04:23:05;;;;;;;1.38;0.80;;;;;;;3.03;66.86;92835.69;4770014;29;20132;-42
2020/12/29 04:25:32;;;;;;;1.90;0.90;;;;;;;3.03;66.38;92828.44;4768881;30;20178;-41
2020/12/29 04:27:58;;;;;;;3.60;1.20;;;;;;;3.16;66.04;92838.94;4768872;30;20115;-43
2020/12/29 04:30:25;;;;;;;1.45;0.85;;;;;;;2.31;68.97;92853.25;4769725;30;20081;-43
2020/12/29 04:32:51;;;;;;;2.35;0.90;;;;;;;2.32;68.95;92848.69;4769610;30;20066;-42
2020/12/29 04:35:17;;;;;;;1.10;0.85;;;;;;;2.53;68.85;92858.94;4769769;30;20518;-43
2020/12/29 04:37:44;;;;;;;2.35;1.13;;;;;;;2.63;68.22;92868.25;4768817;30;20059;-40
2020/12/29 04:40:10;;;;;;;1.65;1.05;;;;;;;2.74;67.77;92859.31;4769447;29;20063;-40
2020/12/29 04:42:37;;;;;;;2.13;1.00;;;;;;;2.90;67.41;92872.50;4769890;30;20455;-42
2020/12/29 04:45:04;;;;;;;2.33;1.20;;;;;;;2.72;68.18;92877.56;4769932;30;20056;-39
2020/12/29 04:47:31;;;;;;;2.03;1.08;;;;;;;2.75;67.92;92884.09;4769093;30;20051;-39
2020/12/29 04:49:58;;;;;;;1.95;1.00;;;;;;;2.81;67.90;92910.13;4769353;30;20444;-39
2020/12/29 04:52:26;;;;;;;1.58;0.95;;;;;;;2.81;68.09;92907.47;4769535;30;20060;-41
2020/12/29 04:54:54;;;;;;;1.98;1.20;;;;;;;2.90;67.79;92912.56;4769526;30;20283;-39
2020/12/29 04:57:23;;;;;;;3.15;1.50;;;;;;;2.85;68.10;92912.09;4769027;30;20138;-40
2020/12/29 04:59:52;;;;;;;2.05;1.27;;;;;;;2.85;67.91;92899.50;4768198;30;20123;-41
2020/12/29 05:02:19;;;;;;;2.55;1.20;;;;;;;2.81;68.15;92912.03;4768990;30;20089;-40
2020/12/29 05:04:45;;;;;;;1.23;0.80;;;;;;;2.86;67.93;92927.78;4770018;30;20060;-39
2020/12/29 05:07:11;;;;;;;1.45;0.90;;;;;;;2.81;68.07;92949.41;4769414;30;20118;-40
2020/12/29 05:09:38;;;;;;;1.55;0.93;;;;;;;2.79;68.01;92954.31;4768537;29;20055;-42
2020/12/29 05:12:05;;;;;;;1.70;0.90;;;;;;;2.75;67.55;92937.47;4769102;30;20139;-40
2020/12/29 05:14:32;;;;;;;1.17;0.80;;;;;;;2.75;67.36;92908.13;4769120;30;20067;-42
2020/12/29 05:17:01;;;;;;;1.73;1.00;;;;;;;2.79;67.28;92922.28;4769059;30;20141;-40
2020/12/29 05:19:27;;;;;;;1.98;1.00;;;;;;;2.84;66.74;92935.34;4768371;30;20573;-40
2020/12/29 05:21:57;;;;;;;2.30;0.77;;;;;;;2.91;66.61;92962.16;4768766;30;20056;-43
2020/12/29 05:24:23;;;;;;;0.73;0.60;;;;;;;2.84;66.66;92956.72;4770485;30;20203;-42
2020/12/29 05:26:57;;;;;;;2.95;1.20;;;;;;;2.81;66.65;92954.75;4768772;30;20052;-41
2020/12/29 05:29:25;;;;;;;1.23;0.70;;;;;;;2.74;66.92;92943.97;4767143;29;20503;-42
2020/12/29 05:31:52;;;;;;;1.90;0.80;;;;;;;2.90;66.24;92943.84;4768733;30;20510;-42
2020/12/29 05:34:21;;;;;;;2.08;0.77;;;;;;;2.77;66.33;92945.91;4768736;30;20139;-43
2020/12/29 05:36:49;;;;;;;1.65;0.80;;;;;;;2.88;66.25;92960.22;4767677;30;20457;-42
2020/12/29 05:39:20;;;;;;;1.25;0.90;;;;;;;3.07;65.71;92969.31;4768079;30;20087;-43
2020/12/29 05:41:48;;;;;;;2.22;1.25;;;;;;;3.06;65.47;92976.53;4769103;30;20511;-38
2020/12/29 05:44:27;;;;;;;2.28;1.27;;;;;;;2.88;65.48;92978.13;4768796;30;20055;-38
2020/12/29 05:46:55;;;;;;;2.00;0.90;;;;;;;2.86;65.48;92975.03;4767412;30;20079;-40
2020/12/29 05:49:23;;;;;;;1.40;0.88;;;;;;;2.80;65.70;92963.91;4768647;30;20467;-38
2020/12/29 05:51:53;;;;;;;1.83;0.90;;;;;;;2.84;65.81;92964.72;4769257;30;20116;-39
2020/12/29 05:54:22;;;;;;;1.92;0.85;;;;;;;2.86;65.27;92981.19;4768812;30;20091;-41
2020/12/29 05:56:49;;;;;;;2.05;0.88;;;;;;;2.86;65.35;92993.72;4768324;30;20135;-44
2020/12/29 05:59:16;;;;;;;5.60;2.90;;;;;;;2.92;65.27;93003.00;4766943;30;20060;-43
2020/12/29 06:01:53;;;;;;;4.03;2.17;;;;;;;2.88;65.23;93002.94;4768476;30;20052;-41
2020/12/29 06:04:20;;;;;;;7.82;4.43;;;;;;;2.86;65.05;93001.75;4768546;29;20595;-43
2020/12/29 06:06:48;;;;;;;5.38;2.47;;;;;;;2.81;65.25;93008.16;4768276;30;20403;-41
2020/12/29 06:09:17;;;;;;;6.80;3.25;;;;;;;2.73;65.47;93011.81;4767595;30;20056;-41
2020/12/29 06:11:49;;;;;;;2.90;1.58;;;;;;;2.79;64.99;93010.41;4768519;30;20056;-42
2020/12/29 06:14:26;;;;;;;3.42;1.73;;;;;;;2.75;65.13;93014.91;4768457;30;20094;-42
2020/12/29 06:16:54;;;;;;;7.22;3.75;;;;;;;2.89;64.01;93020.50;4768232;30;20048;-42
2020/12/29 06:19:28;;;;;;;8.82;4.65;;;;;;;2.92;63.68;93021.69;4767649;30;20135;-44
2020/12/29 06:22:06;;;;;;;6.03;3.20;;;;;;;2.96;63.41;93014.53;4768294;30;20540;-44
2020/12/29 06:24:39;;;;;;;6.95;1.80;;;;;;;2.99;62.96;93016.47;4768453;30;20056;-41
2020/12/29 06:27:07;;;;;;;6.68;3.67;;;;;;;2.93;62.46;93028.59;4768239;30;20066;-42
2020/12/29 06:29:41;;;;;;;9.52;5.72;;;;;;;2.86;62.78;93028.44;4767560;30;20067;-44
2020/12/29 06:32:21;;;;;;;8.48;5.13;;;;;;;2.99;62.35;93035.97;4768208;29;20660;-41
2020/12/29 06:34:48;;;;;;;9.80;6.05;;;;;;;2.88;62.12;93026.19;4771469;30;20139;-42
2020/12/29 06:37:44;;;;;;;3.92;2.30;;;;;;;2.88;62.23;93034.97;4771693;30;20076;-43
2020/12/29 06:40:11;;;;;;;3.10;1.70;;;;;;;2.98;62.16;93033.63;4771505;30;20089;-43
2020/12/29 06:42:42;;;;;;;2.10;1.38;;;;;;;3.02;61.77;93037.91;4771593;30;20068;-41
2020/12/29 06:45:10;;;;;;;11.32;5.32;;;;;;;3.22;61.40;93049.31;4755818;30;20511;-41
2020/12/29 06:47:40;;;;;;;12.63;5.90;;;;;;;3.09;61.42;93061.31;4770957;30;20063;-46
2020/12/29 06:50:28;;;;;;;14.52;7.30;;;;;;;3.15;61.70;93062.56;4771619;30;20055;-42
2020/12/29 06:53:05;;;;;;;12.40;6.10;;;;;;;3.09;61.17;93055.19;4771790;30;20060;-40
2020/12/29 06:55:35;;;;;;;8.32;3.72;;;;;;;3.11;61.14;93064.38;4771693;30;20134;-38
2020/12/29 06:58:03;;;;;;;8.15;4.32;;;;;;;3.06;61.36;93079.94;4771022;29;20048;-39
2020/12/29 07:00:30;;;;;;;8.43;5.25;;;;;;;3.01;61.74;93094.34;4771609;30;20068;-39
2020/12/29 07:02:56;;;;;;;5.43;2.42;;;;;;;2.95;61.42;93083.16;4770355;30;20047;-40
2020/12/29 07:05:24;;;;;;;5.00;2.75;;;;;;;2.95;61.71;93090.41;4770218;30;20145;-40
2020/12/29 07:08:07;;;;;;;3.40;1.95;;;;;;;2.88;61.55;93098.31;4770904;30;20392;-42
2020/12/29 07:10:36;;;;;;;2.72;1.40;;;;;;;2.70;61.89;93114.00;4771076;30;20063;-42
2020/12/29 07:13:06;;;;;;;2.67;1.58;;;;;;;2.75;61.96;93119.03;4771318;30;20059;-40
2020/12/29 07:15:47;;;;;;;2.25;1.30;;;;;;;2.72;62.10;93125.84;4771659;29;20056;-41
2020/12/29 07:18:21;;;;;;;4.25;1.60;;;;;;;2.78;62.36;93123.66;4769115;30;20082;-45
2020/12/29 07:20:49;;;;;;;3.95;2.20;;;;;;;2.88;61.88;93143.69;4770883;30;20112;-40
2020/12/29 07:23:20;;;;;;;4.15;2.25;;;;;;;2.83;61.74;93135.94;4769784;30;20109;-40
2020/12/29 07:25:51;;;;;;;4.30;2.00;;;;;;;2.74;62.26;93134.28;4771163;30;20430;-41
2020/12/29 07:28:23;;;;;;;2.88;1.58;;;;;;;2.79;62.13;93146.56;4770324;30;20048;-38
2020/12/29 07:30:51;;;;;;;3.38;1.50;;;;;;;2.80;62.09;93140.88;4771167;30;20406;-40
2020/12/29 07:33:22;;;;;;;4.07;1.92;;;;;;;2.81;62.27;93152.34;4770966;30;20430;-41
2020/12/29 07:35:49;;;;;;;4.82;2.30;;;;;;;2.79;62.11;93150.03;4769841;30;20134;-41
2020/12/29 07:38:21;;;;;;;3.00;1.70;;;;;;;2.82;62.25;93148.53;4770042;30;20435;-42
2020/12/29 07:40:48;;;;;;;2.80;1.30;;;;;;;2.81;61.84;93157.69;4770553;30;20048;-40
2020/12/29 07:43:14;;;;;;;3.53;1.40;;;;;;;2.80;61.10;93156.91;4770611;30;20055;-41
2020/12/29 07:45:41;;;;;;;2.42;1.40;;;;;;;2.86;60.78;93162.75;4770669;30;20423;-43
2020/12/29 07:48:08;;;;;;;2.47;1.35;;;;;;;2.87;60.54;93166.97;4769900;30;20048;-44
2020/12/29 07:50:38;;;;;;;2.47;1.27;;;;;;;2.88;60.54;93168.50;4770563;30;20507;-41
2020/12/29 07:53:05;;;;;;;3.08;1.45;;;;;;;2.97;59.71;93170.97;4770442;30;20143;-40
2020/12/29 07:55:32;;;;;;;2.65;1.20;;;;;;;2.99;59.25;93180.19;4770476;30;20459;-40
2020/12/29 07:58:06;;;;;;;2.42;1.35;;;;;;;3.10;58.53;93171.59;4770910;29;20059;-41
2020/12/29 08:00:33;;;;;;;1.85;1.20;;;;;;;3.13;58.12;93184.25;4770442;30;20064;-40
2020/12/29 08:03:00;;;;;;;1.88;1.02;;;;;;;3.27;57.48;93189.88;4770633;30;20084;-38
2020/12/29 08:05:29;;;;;;;1.73;0.90;;;;;;;3.39;56.09;93203.09;4770193;30;20571;-40
2020/12/29 08:08:02;;;;;;;5.05;1.27;;;;;;;3.47;55.73;93209.31;4769510;30;20056;-41
2020/12/29 08:10:30;;;;;;;1.88;0.80;;;;;;;3.53;56.06;93193.78;4770785;29;20117;-40
2020/12/29 08:12:59;;;;;;;2.25;1.00;;;;;;;3.63;54.72;93211.91;4770664;30;20127;-40
2020/12/29 08:15:42;;;;;;;1.02;0.70;;;;;;;3.82;54.08;93209.19;4770263;30;20083;-40
2020/12/29 08:18:19;;;;;;;2.55;1.40;;;;;;;4.02;53.70;93217.19;4769621;30;20079;-40
2020/12/29 08:20:52;;;;;;;2.30;1.55;;;;;;;4.11;53.72;93231.88;4770314;30;20059;-41
2020/12/29 08:23:20;;;;;;;2.03;0.77;;;;;;;4.14;52.69;93228.47;4770506;30;20590;-41
2020/12/29 08:25:59;;;;;;;2.75;0.80;;;;;;;4.08;52.36;93237.16;4770693;30;20059;-37
2020/12/29 08:28:30;;;;;;;1.10;0.50;;;;;;;4.03;52.27;93229.41;4769382;30;20058;-38
2020/12/29 08:31:00;;;;;;;3.25;0.63;;;;;;;4.22;51.25;93250.75;4769826;30;20063;-38
2020/12/29 08:33:29;;;;;;;1.27;0.80;;;;;;;4.42;51.23;93251.50;4770174;30;20507;-39
2020/12/29 08:36:04;;;;;;;2.05;0.50;;;;;;;4.53;51.94;93249.75;4769990;30;20178;-39
2020/12/29 08:38:39;;;;;;;0.60;0.55;;;;;;;4.52;51.47;93250.09;4769226;30;20072;-39
2020/12/29 08:41:18;;;;;;;2.38;0.65;;;;;;;4.83;52.05;93249.81;4769620;29;20052;-43
2020/12/29 08:43:53;;;;;;;1.30;0.60;;;;;;;5.06;51.16;93267.72;4769719;30;20134;-42
2020/12/29 08:46:24;;;;;;;1.23;0.63;;;;;;;4.88;51.35;93262.91;4769672;30;20083;-45
2020/12/29 08:48:57;;;;;;;1.65;0.50;;;;;;;4.89;50.49;93282.41;4768709;30;20113;-41
2020/12/29 08:51:42;;;;;;;1.85;0.55;;;;;;;5.01;50.95;93286.81;4769512;30;20549;-42
2020/12/29 08:54:21;;;;;;;0.90;0.43;;;;;;;4.88;51.07;93296.97;4769758;30;20052;-43
2020/12/29 08:56:47;;;;;;;1.50;0.60;;;;;;;4.91;50.97;93280.16;4769299;30;20463;-42
2020/12/29 08:59:15;;;;;;;2.30;0.50;;;;;;;5.05;51.37;93303.72;4768664;30;20055;-45
2020/12/29 09:01:43;;;;;;;1.27;0.50;;;;;;;5.15;50.93;93305.75;4769622;30;20062;-43
2020/12/29 09:04:30;;;;;;;0.93;0.57;;;;;;;5.18;51.38;93302.34;4769283;30;20271;-40
2020/12/29 09:07:08;;;;;;;0.88;0.50;;;;;;;5.38;51.96;93317.19;4769413;30;20079;-44
2020/12/29 09:09:38;;;;;;;2.15;0.63;;;;;;;5.35;51.73;93319.81;4768730;30;20094;-41
2020/12/29 09:12:07;;;;;;;1.17;0.50;;;;;;;5.22;50.93;93316.56;4769352;30;20162;-40
2020/12/29 09:14:34;;;;;;;1.13;0.55;;;;;;;5.17;51.44;93327.63;4769204;30;20089;-39
2020/12/29 09:17:04;;;;;;;3.13;0.70;;;;;;;5.19;51.46;93321.88;4769326;30;20117;-39
2020/12/29 09:19:32;;;;;;;1.15;0.73;;;;;;;5.11;51.58;93337.09;4768529;30;20062;-40
2020/12/29 09:22:04;;;;;;;1.60;0.50;;;;;;;5.14;51.53;93323.75;4769273;29;20075;-41
2020/12/29 09:24:31;;;;;;;3.25;1.00;;;;;;;5.11;51.90;93329.06;4769391;30;20060;-40
2020/12/29 09:26:58;;;;;;;1.33;0.68;;;;;;;5.08;51.37;93335.16;4769001;30;20138;-39
2020/12/29 09:29:31;;;;;;;1.40;0.70;;;;;;;5.21;51.12;93360.59;4787314;24;20052;-40
2020/12/29 09:31:58;;;;;;;1.50;0.60;;;;;;;5.18;51.20;93361.31;4770354;30;20120;-39
2020/12/29 09:34:24;;;;;;;1.90;0.80;;;;;;;5.34;51.31;93363.84;4769791;30;20144;-40
2020/12/29 09:36:51;;;;;;;2.05;0.60;;;;;;;5.39;50.56;93372.38;4768328;30;20067;-39
2020/12/29 09:39:18;;;;;;;1.13;0.55;;;;;;;5.39;50.38;93352.81;4768851;30;20056;-39
2020/12/29 09:41:44;;;;;;;1.33;0.60;;;;;;;5.59;50.37;93377.63;4770032;30;20055;-41
2020/12/29 09:44:11;;;;;;;1.77;0.70;;;;;;;5.65;50.13;93384.19;4772143;30;20245;-41
2020/12/29 09:46:38;;;;;;;2.42;0.70;;;;;;;5.68;48.90;93364.69;4769666;30;20059;-41
2020/12/29 09:49:05;;;;;;;1.77;0.70;;;;;;;5.85;49.42;93392.91;4768682;30;20134;-40
2020/12/29 09:51:32;;;;;;;1.20;0.55;;;;;;;5.91;48.83;93385.28;4769057;29;20094;-40
2020/12/29 09:53:59;;;;;;;1.75;0.70;;;;;;;5.84;49.28;93389.44;4768722;29;20526;-39
2020/12/29 09:56:25;;;;;;;1.35;0.70;;;;;;;6.08;48.87;93398.97;4769419;30;20137;-39
2020/12/29 09:58:51;;;;;;;1.92;0.85;;;;;;;5.92;48.76;93406.41;4769016;30;20532;-39
2020/12/29 10:01:18;;;;;;;2.17;1.02;;;;;;;5.60;49.86;93400.63;4769855;30;20290;-40
2020/12/29 10:03:45;;;;;;;1.50;0.82;;;;;;;5.64;49.60;93398.75;4769128;30;20077;-39
2020/12/29 10:06:14;;;;;;;1.60;0.93;;;;;;;5.73;49.80;93398.50;4768188;30;20056;-41
2020/12/29 10:08:40;;;;;;;1.70;0.88;;;;;;;5.72;50.04;93405.78;4771447;30;20055;-40
2020/12/29 10:11:10;;;;;;;1.70;0.80;;;;;;;5.85;49.51;93404.41;4777307;30;20059;-39
2020/12/29 10:13:36;;;;;;;2.88;1.17;;;;;;;5.90;50.10;93402.53;4779176;30;20067;-40
2020/12/29 10:16:03;;;;;;;4.25;1.13;;;;;;;5.85;50.04;93407.09;4775844;30;20568;-40
2020/12/29 10:18:31;;;;;;;2.03;0.90;;;;;;;5.97;50.19;93410.72;4775217;29;20437;-39
2020/12/29 10:20:57;;;;;;;1.45;0.82;;;;;;;5.92;49.53;93406.41;4774852;30;20055;-40
2020/12/29 10:23:24;;;;;;;4.03;0.80;;;;;;;6.03;49.91;93412.72;4773222;30;20085;-40
2020/12/29 10:25:50;;;;;;;3.20;1.30;;;;;;;6.15;49.66;93422.44;4773142;30;20063;-39
2020/12/29 10:28:19;;;;;;;2.40;1.00;;;;;;;5.84;50.42;93410.91;4772188;30;20461;-40
2020/12/29 10:30:48;;;;;;;3.38;0.90;;;;;;;5.79;51.49;93413.16;4772348;30;20067;-43
2020/12/29 10:33:15;;;;;;;2.80;0.88;;;;;;;5.75;51.13;93417.66;4773010;30;20515;-43
2020/12/29 10:35:41;;;;;;;2.00;0.60;;;;;;;5.77;51.60;93418.84;4772919;30;20132;-39
2020/12/29 10:38:08;;;;;;;0.80;0.60;;;;;;;5.66;51.56;93415.28;4771930;29;20105;-40
2020/12/29 10:40:34;;;;;;;2.92;0.93;;;;;;;5.74;51.18;93406.16;4772546;30;20071;-39
2020/12/29 10:43:01;;;;;;;1.95;0.80;;;;;;;5.75;51.46;93413.09;4775379;30;20090;-39
2020/12/29 10:45:27;;;;;;;1.80;0.70;;;;;;;5.63;52.08;93430.16;4776527;30;20108;-40
2020/12/29 10:47:53;;;;;;;1.73;0.70;;;;;;;5.76;51.90;93429.97;4773312;30;20116;-39
2020/12/29 10:50:20;;;;;;;1.55;0.70;;;;;;;5.67;52.10;93430.22;4771688;30;20056;-40
2020/12/29 10:52:46;;;;;;;4.13;0.80;;;;;;;5.75;51.57;93447.97;4772467;30;20056;-40
2020/12/29 10:55:13;;;;;;;1.13;0.60;;;;;;;5.93;51.65;93442.09;4771970;30;20059;-39
2020/12/29 10:57:39;;;;;;;1.23;0.70;;;;;;;5.87;52.29;93446.97;4772600;30;20063;-39
2020/12/29 11:00:06;;;;;;;4.60;1.70;;;;;;;5.97;51.89;93442.91;4773512;30;20051;-39
2020/12/29 11:02:32;;;;;;;2.25;1.00;;;;;;;6.02;51.62;93451.44;4773344;30;20055;-40
2020/12/29 11:04:59;;;;;;;4.07;1.77;;;;;;;6.09;51.46;93461.50;4772688;30;20534;-38
2020/12/29 11:07:25;;;;;;;2.05;0.82;;;;;;;5.85;51.71;93460.78;4772713;30;20461;-39
2020/12/29 11:09:51;;;;;;;1.63;1.10;;;;;;;5.87;52.20;93463.06;4771445;30;20159;-40
2020/12/29 11:12:18;;;;;;;2.22;0.90;;;;;;;5.90;51.91;93450.84;4771792;30;20055;-41
2020/12/29 11:14:44;;;;;;;3.60;0.80;;;;;;;5.96;52.22;93452.88;4773079;30;20514;-40
2020/12/29 11:17:11;;;;;;;1.88;0.90;;;;;;;6.16;52.18;93456.19;4772352;30;20262;-40
2020/12/29 11:19:46;;;;;;;2.67;0.70;;;;;;;6.22;52.06;93452.06;4773647;30;20059;-40
2020/12/29 11:22:13;;;;;;;1.98;0.80;;;;;;;6.25;50.93;93456.72;4772879;30;20082;-41
2020/12/29 11:24:39;;;;;;;3.30;0.98;;;;;;;6.55;50.69;93462.03;4772873;30;20458;-39
2020/12/29 11:27:06;;;;;;;2.95;1.13;;;;;;;6.76;50.38;93469.59;4776225;30;20125;-39
2020/12/29 11:29:32;;;;;;;3.50;0.95;;;;;;;6.70;49.90;93465.69;4770939;30;20059;-41
2020/12/29 11:31:59;;;;;;;2.08;0.88;;;;;;;6.50;50.03;93469.66;4771247;30;20138;-41
2020/12/29 11:34:25;;;;;;;3.08;0.90;;;;;;;6.35;50.87;93474.09;4771427;30;20111;-40
2020/12/29 11:36:51;;;;;;;3.53;0.73;;;;;;;6.16;50.58;93472.31;4770904;30;20097;-39
2020/12/29 11:39:18;;;;;;;3.85;1.05;;;;;;;6.15;51.23;93480.75;4769552;30;20047;-41
2020/12/29 11:41:50;;;;;;;3.20;0.93;;;;;;;5.91;52.28;93485.34;4771112;30;20195;-40
2020/12/29 11:44:16;;;;;;;2.47;1.10;;;;;;;5.89;51.87;93482.28;4770962;30;20083;-42
2020/12/29 11:46:42;;;;;;;3.10;1.23;;;;;;;6.13;51.97;93494.50;4770723;30;20130;-41
2020/12/29 11:49:09;;;;;;;1.88;0.77;;;;;;;6.07;51.82;93502.09;4769999;30;20134;-41